createdAt,value
2018-01-20T00:01:00.217Z,94971
2018-01-20T00:03:37.036Z,94976
2018-01-20T00:06:05.405Z,94968
2018-01-20T00:08:40.568Z,94982
2018-01-20T00:11:29.879Z,94975
2018-01-20T00:14:01.503Z,94977
2018-01-20T00:16:30.426Z,94978
2018-01-20T00:18:58.559Z,94976
2018-01-20T00:21:27.347Z,94981
2018-01-20T00:23:57.097Z,94987
2018-01-20T00:26:31.165Z,94990
2018-01-20T00:29:03.212Z,94997
2018-01-20T00:44:26.340Z,95016
2018-01-20T00:46:54.951Z,95007
2018-01-20T01:02:18.736Z,95038
2018-01-20T01:04:50.932Z,95034
2018-01-20T01:07:19.961Z,95041
2018-01-20T01:22:43.168Z,95068
2018-01-20T01:25:11.261Z,95066
2018-01-20T01:27:39.371Z,95062
2018-01-20T01:30:08.159Z,95061
2018-01-20T01:32:36.272Z,95066
2018-01-20T01:35:04.415Z,95072
2018-01-20T01:37:32.507Z,95069
2018-01-20T01:40:00.604Z,95071
2018-01-20T01:55:24.290Z,95066
2018-01-20T01:57:52.399Z,95063
2018-01-20T02:00:20.536Z,95064
2018-01-20T02:02:48.644Z,95063
2018-01-20T02:05:16.813Z,95070
2018-01-20T02:07:44.924Z,95064
2018-01-20T02:10:13.020Z,95061
2018-01-20T02:12:41.132Z,95066
2018-01-20T02:15:09.231Z,95067
2018-01-20T02:17:38.156Z,95058
2018-01-20T02:20:06.288Z,95064
2018-01-20T02:22:34.388Z,95057
2018-01-20T02:37:52.555Z,95063
2018-01-20T02:40:20.661Z,95059
2018-01-20T02:42:48.747Z,95056
2018-01-20T02:45:17.665Z,95049
2018-01-20T02:47:45.773Z,95063
2018-01-20T02:50:13.879Z,95059
2018-01-20T02:52:42.012Z,95065
2018-01-20T02:55:10.109Z,95044
2018-01-20T02:57:38.287Z,95052
2018-01-20T03:00:06.383Z,95041
2018-01-20T03:02:34.475Z,95037
2018-01-20T03:05:02.585Z,95040
2018-01-20T03:07:30.900Z,95035
2018-01-20T03:09:59.000Z,95028
2018-01-20T03:12:27.232Z,95018
2018-01-20T03:14:55.313Z,95013
2018-01-20T03:17:23.484Z,95010
2018-01-20T03:19:51.580Z,95005
2018-01-20T03:22:19.682Z,94999
2018-01-20T03:24:47.774Z,94998
2018-01-20T03:27:15.881Z,94998
2018-01-20T03:29:43.968Z,94997
2018-01-20T03:32:12.078Z,95010
2018-01-20T03:34:40.171Z,95003
2018-01-20T03:37:08.441Z,95014
2018-01-20T03:39:36.678Z,95012
2018-01-20T03:42:04.838Z,95014
2018-01-20T03:44:32.928Z,95007
2018-01-20T03:47:01.064Z,95009
2018-01-20T03:49:29.929Z,95011
2018-01-20T03:51:58.026Z,95013
2018-01-20T03:54:26.892Z,95013
2018-01-20T03:56:54.990Z,95003
2018-01-20T03:59:23.865Z,95006
2018-01-20T04:01:51.950Z,95008
2018-01-20T04:04:20.095Z,95005
2018-01-20T04:06:48.165Z,94998
2018-01-20T04:09:16.373Z,95007
2018-01-20T04:11:45.227Z,95002
2018-01-20T04:14:13.329Z,95004
2018-01-20T04:16:42.184Z,94995
2018-01-20T04:19:10.275Z,95005
2018-01-20T04:21:39.175Z,95001
2018-01-20T04:37:02.882Z,95000
2018-01-20T04:39:30.979Z,94991
2018-01-20T04:41:59.165Z,94979
2018-01-20T04:44:27.398Z,94985
2018-01-20T04:46:55.548Z,94978
2018-01-20T04:49:23.690Z,94972
2018-01-20T04:51:51.752Z,94968
2018-01-20T04:54:19.844Z,94969
2018-01-20T04:56:48.008Z,94974
2018-01-20T04:59:16.926Z,94963
2018-01-20T05:01:45.040Z,94967
2018-01-20T05:04:13.160Z,94965
2018-01-20T05:06:41.519Z,94960
2018-01-20T05:09:10.373Z,94954
2018-01-20T05:11:38.444Z,94964
2018-01-20T05:14:06.562Z,94954
2018-01-20T05:16:34.666Z,94953
2018-01-20T05:19:02.780Z,94953
2018-01-20T05:21:30.866Z,94955
2018-01-20T05:23:58.986Z,94950
2018-01-20T05:26:27.109Z,94940
2018-01-20T05:28:55.812Z,94945
2018-01-20T05:31:23.899Z,94956
2018-01-20T05:33:52.131Z,94953
2018-01-20T05:36:20.416Z,94952
2018-01-20T05:38:48.540Z,94937
2018-01-20T05:41:16.655Z,94946
2018-01-20T05:43:44.771Z,94950
2018-01-20T05:46:12.861Z,94951
2018-01-20T05:48:40.939Z,94950
2018-01-20T05:51:09.311Z,94941
2018-01-20T05:53:37.503Z,94935
2018-01-20T05:56:05.599Z,94922
2018-01-20T05:58:33.681Z,94924
2018-01-20T06:01:02.683Z,94912
2018-01-20T06:03:30.837Z,94903
2018-01-20T06:05:59.047Z,94902
2018-01-20T06:08:27.183Z,94908
2018-01-20T06:10:55.281Z,94906
2018-01-20T06:13:23.456Z,94907
2018-01-20T06:15:51.500Z,94885
2018-01-20T06:18:19.652Z,94885
2018-01-20T06:20:48.374Z,94892
2018-01-20T06:23:16.502Z,94888
2018-01-20T06:25:44.599Z,94881
2018-01-20T06:28:12.698Z,94896
2018-01-20T06:30:40.802Z,94895
2018-01-20T06:33:08.914Z,94892
2018-01-20T06:35:37.044Z,94892
2018-01-20T06:38:05.905Z,94891
2018-01-20T06:40:34.567Z,94898
2018-01-20T06:43:02.710Z,94899
2018-01-20T06:45:30.784Z,94892
2018-01-20T06:47:58.866Z,94892
2018-01-20T06:50:26.974Z,94884
2018-01-20T06:52:55.057Z,94878
2018-01-20T06:55:23.152Z,94889
2018-01-20T06:57:51.241Z,94890
2018-01-20T07:00:19.331Z,94886
2018-01-20T07:02:47.449Z,94891
2018-01-20T07:05:15.539Z,94895
2018-01-20T07:07:43.626Z,94893
2018-01-20T07:10:11.809Z,94896
2018-01-20T07:12:40.879Z,94900
2018-01-20T07:15:09.049Z,94895
2018-01-20T07:17:37.136Z,94908
2018-01-20T07:20:05.255Z,94897
2018-01-20T07:22:33.335Z,94904
2018-01-20T07:25:01.416Z,94915
2018-01-20T07:27:29.585Z,94919
2018-01-20T07:29:58.601Z,94913
2018-01-20T07:32:26.742Z,94927
2018-01-20T07:34:54.861Z,94910
2018-01-20T07:37:22.968Z,94936
2018-01-20T07:39:56.590Z,94918
2018-01-20T07:42:24.778Z,94918
2018-01-20T07:44:52.860Z,94918
2018-01-20T07:47:20.989Z,94917
2018-01-20T07:49:49.086Z,94906
2018-01-20T07:52:17.226Z,94900
2018-01-20T07:54:45.302Z,94898
2018-01-20T07:57:13.394Z,94900
2018-01-20T07:59:42.248Z,94888
2018-01-20T08:02:10.327Z,94886
2018-01-20T08:04:38.432Z,94882
2018-01-20T08:07:06.510Z,94876
2018-01-20T08:09:34.638Z,94884
2018-01-20T08:12:02.744Z,94880
2018-01-20T08:14:30.837Z,94875
2018-01-20T08:16:59.512Z,94882
2018-01-20T08:19:27.645Z,94890
2018-01-20T08:21:55.757Z,94895
2018-01-20T08:24:25.233Z,94887
2018-01-20T08:26:53.321Z,94893
2018-01-20T08:29:21.481Z,94892
2018-01-20T08:31:50.321Z,94893
2018-01-20T08:34:18.457Z,94882
2018-01-20T08:36:46.535Z,94881
2018-01-20T08:39:14.641Z,94887
2018-01-20T08:41:42.770Z,94881
2018-01-20T08:44:11.655Z,94885
2018-01-20T08:46:39.732Z,94882
2018-01-20T08:49:07.820Z,94906
2018-01-20T08:51:35.928Z,94894
2018-01-20T08:54:04.056Z,94909
2018-01-20T08:56:32.192Z,94898
2018-01-20T08:59:00.290Z,94892
2018-01-20T09:01:28.428Z,94898
2018-01-20T09:03:56.515Z,94883
2018-01-20T09:06:24.592Z,94890
2018-01-20T09:08:52.692Z,94884
2018-01-20T09:11:20.757Z,94879
2018-01-20T09:13:49.038Z,94882
2018-01-20T09:16:17.388Z,94880
2018-01-20T09:18:45.500Z,94880
2018-01-20T09:21:13.678Z,94885
2018-01-20T09:23:41.771Z,94897
2018-01-20T09:26:10.369Z,94881
2018-01-20T09:28:38.515Z,94887
2018-01-20T09:31:06.675Z,94879
2018-01-20T09:33:35.077Z,94877
2018-01-20T09:36:03.177Z,94879
2018-01-20T09:38:31.259Z,94878
2018-01-20T09:40:59.431Z,94879
2018-01-20T09:43:28.023Z,94885
2018-01-20T09:45:56.205Z,94873
2018-01-20T09:48:24.295Z,94860
2018-01-20T09:50:52.426Z,94863
2018-01-20T09:53:20.515Z,94854
2018-01-20T09:55:48.659Z,94856
2018-01-20T09:58:16.953Z,94860
2018-01-20T10:00:45.040Z,94851
2018-01-20T10:03:13.117Z,94854
2018-01-20T10:05:41.273Z,94852
2018-01-20T10:08:09.506Z,94845
2018-01-20T10:10:37.728Z,94850
2018-01-20T10:13:05.900Z,94832
2018-01-20T10:15:33.992Z,94826
2018-01-20T10:18:02.852Z,94835
2018-01-20T10:20:30.943Z,94821
2018-01-20T10:22:59.308Z,94822
2018-01-20T10:25:27.402Z,94811
2018-01-20T10:27:55.548Z,94808
2018-01-20T10:30:23.688Z,94806
2018-01-20T10:32:51.934Z,94817
2018-01-20T10:35:20.784Z,94799
2018-01-20T10:37:48.920Z,94797
2018-01-20T10:40:16.990Z,94802
2018-01-20T10:42:45.163Z,94784
2018-01-20T10:45:13.265Z,94788
2018-01-20T10:47:41.588Z,94796
2018-01-20T10:50:10.443Z,94792
2018-01-20T10:52:39.450Z,94798
2018-01-20T10:55:07.541Z,94793
2018-01-20T10:57:35.647Z,94777
2018-01-20T11:00:03.757Z,94777
2018-01-20T11:02:31.937Z,94777
2018-01-20T11:05:00.123Z,94765
2018-01-20T11:07:28.353Z,94753
2018-01-20T11:09:56.527Z,94745
2018-01-20T11:12:24.647Z,94748
2018-01-20T11:14:52.767Z,94741
2018-01-20T11:17:20.834Z,94733
2018-01-20T11:19:48.955Z,94731
2018-01-20T11:22:17.096Z,94727
2018-01-20T11:24:45.168Z,94722
2018-01-20T11:27:13.260Z,94715
2018-01-20T11:29:41.339Z,94711
2018-01-20T11:32:09.438Z,94694
2018-01-20T11:34:37.532Z,94684
2018-01-20T11:37:05.629Z,94676
2018-01-20T11:39:33.702Z,94663
2018-01-20T11:42:01.804Z,94664
2018-01-20T11:44:29.880Z,94647
2018-01-20T11:46:58.778Z,94639
2018-01-20T11:49:26.882Z,94649
2018-01-20T11:51:54.962Z,94635
2018-01-20T11:54:23.070Z,94634
2018-01-20T11:56:51.141Z,94625
2018-01-20T11:59:19.246Z,94618
2018-01-20T12:01:47.333Z,94616
2018-01-20T12:04:15.543Z,94599
2018-01-20T12:06:43.637Z,94592
2018-01-20T12:09:11.720Z,94593
2018-01-20T12:11:39.836Z,94579
2018-01-20T12:14:08.022Z,94577
2018-01-20T12:16:36.115Z,94572
2018-01-20T12:19:04.265Z,94570
2018-01-20T12:21:33.227Z,94564
2018-01-20T12:24:02.083Z,94560
2018-01-20T12:26:30.175Z,94552
2018-01-20T12:28:59.175Z,94542
2018-01-20T12:31:27.272Z,94541
2018-01-20T12:33:55.343Z,94534
2018-01-20T12:36:23.446Z,94517
2018-01-20T12:38:51.610Z,94515
2018-01-20T12:41:19.745Z,94521
2018-01-20T12:43:47.917Z,94517
2018-01-20T12:46:16.019Z,94500
2018-01-20T12:48:44.124Z,94506
2018-01-20T12:51:12.247Z,94507
2018-01-20T12:53:40.447Z,94498
2018-01-20T12:56:08.603Z,94487
2018-01-20T12:58:36.695Z,94479
2018-01-20T13:01:04.806Z,94475
2018-01-20T13:03:32.880Z,94473
2018-01-20T13:06:00.992Z,94465
2018-01-20T13:08:29.063Z,94470
2018-01-20T13:10:57.163Z,94456
2018-01-20T13:13:25.257Z,94460
2018-01-20T13:15:53.346Z,94444
2018-01-20T13:18:21.615Z,94449
2018-01-20T13:20:49.800Z,94445
2018-01-20T13:23:18.662Z,94429
2018-01-20T13:25:46.748Z,94429
2018-01-20T13:28:15.618Z,94417
2018-01-20T13:30:44.744Z,94419
2018-01-20T13:33:12.980Z,94413
2018-01-20T13:35:43.144Z,94405
2018-01-20T13:38:12.000Z,94402
2018-01-20T13:40:40.115Z,94395
2018-01-20T13:43:08.523Z,94380
2018-01-20T13:45:36.637Z,94383
2018-01-20T13:48:04.722Z,94363
2018-01-20T13:50:32.809Z,94355
2018-01-20T13:53:00.882Z,94349
2018-01-20T13:55:28.985Z,94337
2018-01-20T13:57:57.063Z,94339
2018-01-20T14:00:25.147Z,94331
2018-01-20T14:02:53.251Z,94317
2018-01-20T14:05:21.337Z,94306
2018-01-20T14:07:49.445Z,94311
2018-01-20T14:10:17.633Z,94300
2018-01-20T14:12:45.719Z,94289
2018-01-20T14:15:13.831Z,94283
2018-01-20T14:17:41.932Z,94269
2018-01-20T14:20:10.030Z,94271
2018-01-20T14:22:38.140Z,94273
2018-01-20T14:25:06.232Z,94258
2018-01-20T14:27:34.418Z,94255
2018-01-20T14:30:02.602Z,94256
2018-01-20T14:32:30.690Z,94243
2018-01-20T14:34:58.778Z,94237
2018-01-20T14:37:26.875Z,94231
2018-01-20T14:39:54.962Z,94219
2018-01-20T14:42:23.068Z,94216
2018-01-20T14:44:51.142Z,94209
2018-01-20T14:47:19.256Z,94209
2018-01-20T14:49:47.332Z,94197
2018-01-20T14:52:15.422Z,94191
2018-01-20T14:54:43.524Z,94188
2018-01-20T14:57:11.595Z,94184
2018-01-20T14:59:39.725Z,94171
2018-01-20T15:02:07.933Z,94169
2018-01-20T15:04:36.115Z,94167
2018-01-20T15:07:04.202Z,94161
2018-01-20T15:09:32.307Z,94161
2018-01-20T15:12:01.167Z,94151
2018-01-20T15:14:29.295Z,94146
2018-01-20T15:16:57.388Z,94141
2018-01-20T15:19:25.505Z,94128
2018-01-20T15:21:53.597Z,94129
2018-01-20T15:24:21.707Z,94118
2018-01-20T15:26:49.797Z,94116
2018-01-20T15:29:17.881Z,94100
2018-01-20T15:31:45.999Z,94096
2018-01-20T15:34:14.095Z,94091
2018-01-20T15:36:42.185Z,94097
2018-01-20T15:39:11.088Z,94095
2018-01-20T15:41:39.189Z,94086
2018-01-20T15:44:07.343Z,94077
2018-01-20T15:46:36.848Z,94075
2018-01-20T15:49:05.695Z,94075
2018-01-20T15:51:33.916Z,94080
2018-01-20T15:54:02.044Z,94063
2018-01-20T15:56:30.142Z,94059
2018-01-20T15:58:58.614Z,94059
2018-01-20T16:01:26.696Z,94050
2018-01-20T16:03:54.819Z,94052
2018-01-20T16:06:22.904Z,94038
2018-01-20T16:08:50.994Z,94027
2018-01-20T16:11:19.075Z,94009
2018-01-20T16:13:47.174Z,94006
2018-01-20T16:16:15.386Z,94013
2018-01-20T16:18:43.621Z,94025
2018-01-20T16:21:12.559Z,94016
2018-01-20T16:23:40.647Z,94026
2018-01-20T16:26:08.736Z,94016
2018-01-20T16:28:36.826Z,94019
2018-01-20T16:31:04.921Z,94021
2018-01-20T16:33:33.029Z,94018
2018-01-20T16:36:01.134Z,93998
2018-01-20T16:38:29.241Z,93999
2018-01-20T16:40:57.337Z,93989
2018-01-20T16:43:25.789Z,93981
2018-01-20T16:45:53.897Z,93969
2018-01-20T16:48:21.977Z,93967
2018-01-20T16:50:50.082Z,93964
2018-01-20T16:53:18.219Z,93953
2018-01-20T16:55:46.381Z,93949
2018-01-20T16:58:14.859Z,93935
2018-01-20T17:00:43.533Z,93925
2018-01-20T17:03:11.700Z,93930
2018-01-20T17:05:39.790Z,93944
2018-01-20T17:08:07.909Z,93928
2018-01-20T17:23:31.104Z,93893
2018-01-20T17:25:59.208Z,93884
2018-01-20T17:28:27.325Z,93875
2018-01-20T17:30:55.418Z,93873
2018-01-20T17:33:23.525Z,93871
2018-01-20T17:35:51.645Z,93859
2018-01-20T17:38:20.228Z,93851
2018-01-20T17:40:48.436Z,93835
2018-01-20T17:43:16.540Z,93842
2018-01-20T17:45:44.653Z,93831
2018-01-20T17:48:12.756Z,93830
2018-01-20T17:50:40.890Z,93823
2018-01-20T17:53:09.010Z,93820
2018-01-20T17:55:37.115Z,93807
2018-01-20T17:58:05.970Z,93808
2018-01-20T18:00:34.107Z,93801
2018-01-20T18:03:02.253Z,93798
2018-01-20T18:05:30.437Z,93788
2018-01-20T18:07:58.720Z,93783
2018-01-20T18:10:26.931Z,93789
2018-01-20T18:12:55.094Z,93768
2018-01-20T18:15:23.177Z,93760
2018-01-20T18:17:51.334Z,93761
2018-01-20T18:20:19.951Z,93754
2018-01-20T18:22:48.152Z,93751
2018-01-20T18:25:17.010Z,93748
2018-01-20T18:27:45.113Z,93739
2018-01-20T18:30:13.968Z,93727
2018-01-20T18:32:42.172Z,93721
2018-01-20T18:35:10.300Z,93725
2018-01-20T18:37:38.508Z,93710
2018-01-20T18:40:06.620Z,93702
2018-01-20T18:42:34.709Z,93706
2018-01-20T18:45:02.806Z,93693
2018-01-20T18:47:30.908Z,93690
2018-01-20T18:49:59.924Z,93685
2018-01-20T18:52:28.083Z,93681
2018-01-20T18:54:56.323Z,93675
2018-01-20T18:57:24.588Z,93676
2018-01-20T18:59:52.742Z,93673
2018-01-20T19:02:20.840Z,93663
2018-01-20T19:04:48.990Z,93658
2018-01-20T19:07:17.358Z,93665
2018-01-20T19:09:45.490Z,93658
2018-01-20T19:12:14.205Z,93654
2018-01-20T19:14:42.366Z,93664
2018-01-20T19:17:11.251Z,93649
2018-01-20T19:19:39.434Z,93651
2018-01-20T19:22:08.291Z,93664
2018-01-20T19:24:36.467Z,93653
2018-01-20T19:27:04.611Z,93648
2018-01-20T19:29:32.774Z,93652
2018-01-20T19:32:01.100Z,93657
2018-01-20T19:34:29.299Z,93646
2018-01-20T19:36:57.512Z,93655
2018-01-20T19:39:25.748Z,93667
2018-01-20T19:41:54.072Z,93656
2018-01-20T19:44:22.288Z,93664
2018-01-20T19:46:51.243Z,93654
2018-01-20T19:49:19.508Z,93652
2018-01-20T19:51:47.743Z,93660
2018-01-20T19:54:16.654Z,93646
2018-01-20T19:56:44.852Z,93646
2018-01-20T19:59:13.096Z,93626
2018-01-20T20:01:41.372Z,93623
2018-01-20T20:04:09.718Z,93616
2018-01-20T20:06:37.996Z,93618
2018-01-20T20:09:06.258Z,93621
2018-01-20T20:11:34.458Z,93612
2018-01-20T20:14:02.689Z,93609
2018-01-20T20:16:31.803Z,93623
2018-01-20T20:19:00.821Z,93607
2018-01-20T20:21:29.928Z,93607
2018-01-20T20:23:58.161Z,93608
2018-01-20T20:26:26.402Z,93607
2018-01-20T20:28:55.773Z,93597
2018-01-20T20:31:23.980Z,93603
2018-01-20T20:33:52.188Z,93594
2018-01-20T20:36:20.662Z,93607
2018-01-20T20:38:48.961Z,93599
2018-01-20T20:41:17.379Z,93598
2018-01-20T20:43:45.608Z,93593
2018-01-20T20:46:14.644Z,93595
2018-01-20T20:48:42.859Z,93596
2018-01-20T20:51:11.091Z,93585
2018-01-20T20:53:39.325Z,93586
2018-01-20T20:56:08.526Z,93588
2018-01-20T20:58:36.797Z,93586
2018-01-20T21:01:05.060Z,93575
2018-01-20T21:03:33.289Z,93580
2018-01-20T21:06:02.402Z,93576
2018-01-20T21:08:30.600Z,93575
2018-01-20T21:10:58.937Z,93578
2018-01-20T21:13:27.155Z,93584
2018-01-20T21:15:55.357Z,93576
2018-01-20T21:18:23.618Z,93580
2018-01-20T21:20:52.763Z,93581
2018-01-20T21:23:20.972Z,93575
2018-01-20T21:25:49.147Z,93574
2018-01-20T21:28:17.371Z,93561
2018-01-20T21:30:45.549Z,93574
2018-01-20T21:33:13.766Z,93580
2018-01-20T21:35:42.039Z,93577
2018-01-20T21:38:10.408Z,93565
2018-01-20T21:40:38.668Z,93567
2018-01-20T21:43:06.901Z,93571
2018-01-20T21:45:35.185Z,93575
2018-01-20T21:48:03.436Z,93578
2018-01-20T21:50:31.654Z,93572
2018-01-20T21:52:59.871Z,93566
2018-01-20T21:55:28.196Z,93555
2018-01-20T21:57:56.366Z,93556
2018-01-20T22:00:25.308Z,93559
2018-01-20T22:02:53.459Z,93544
2018-01-20T22:05:21.870Z,93543
2018-01-20T22:07:50.631Z,93541
2018-01-20T22:10:18.791Z,93538
2018-01-20T22:12:46.906Z,93535
2018-01-20T22:15:15.093Z,93529
2018-01-20T22:17:44.024Z,93526
2018-01-20T22:20:12.748Z,93528
2018-01-20T22:22:40.849Z,93530
2018-01-20T22:25:09.275Z,93532
2018-01-20T22:27:37.391Z,93535
2018-01-20T22:30:05.493Z,93534
2018-01-20T22:32:33.623Z,93539
2018-01-20T22:35:01.769Z,93548
2018-01-20T22:37:29.890Z,93543
2018-01-20T22:39:58.014Z,93534
2018-01-20T22:42:26.141Z,93535
2018-01-20T22:44:54.241Z,93542
2018-01-20T22:47:22.328Z,93533
2018-01-20T22:49:50.524Z,93545
2018-01-20T22:52:18.630Z,93538
2018-01-20T22:54:46.718Z,93552
2018-01-20T22:57:15.559Z,93551
2018-01-20T22:59:43.672Z,93552
2018-01-20T23:02:11.792Z,93561
2018-01-20T23:04:39.955Z,93544
2018-01-20T23:07:08.038Z,93551
2018-01-20T23:09:36.188Z,93543
2018-01-20T23:12:04.301Z,93539
2018-01-20T23:14:32.450Z,93548
2018-01-20T23:17:00.546Z,93551
2018-01-20T23:19:28.636Z,93545
2018-01-20T23:21:56.798Z,93554
2018-01-20T23:24:24.951Z,93566
2018-01-20T23:26:53.103Z,93571
2018-01-20T23:29:21.940Z,93573
2018-01-20T23:31:50.069Z,93576
2018-01-20T23:34:18.157Z,93576
2018-01-20T23:36:46.269Z,93578
2018-01-20T23:39:14.428Z,93587
2018-01-20T23:41:42.605Z,93592
2018-01-20T23:44:10.703Z,93590
2018-01-20T23:46:38.809Z,93593
2018-01-20T23:49:06.922Z,93593
2018-01-20T23:51:35.016Z,93592
2018-01-20T23:54:03.935Z,93606
2018-01-20T23:56:32.035Z,93608
2018-01-20T23:59:00.143Z,93609
